createdAt,value
2023-01-03T00:01:51.761Z,12.17
2023-01-03T00:04:20.880Z,11.95
2023-01-03T00:06:53.208Z,11.91
2023-01-03T00:09:23.514Z,11.34
2023-01-03T00:12:11.905Z,11.50
2023-01-03T00:14:42.706Z,11.68
2023-01-03T00:17:11.058Z,11.86
2023-01-03T00:19:43.245Z,11.17
2023-01-03T00:22:12.516Z,11.39
2023-01-03T00:24:39.647Z,11.64
2023-01-03T00:27:06.745Z,11.60
2023-01-03T00:29:34.088Z,11.75
2023-01-03T00:32:01.438Z,12.36
2023-01-03T00:34:28.681Z,11.21
2023-01-03T00:36:55.974Z,11.95
2023-01-03T00:39:23.403Z,12.25
2023-01-03T00:41:50.381Z,12.62
2023-01-03T00:44:18.042Z,11.96
2023-01-03T00:46:45.807Z,12.09
2023-01-03T00:49:13.533Z,12.64
2023-01-03T00:51:42.125Z,12.28
2023-01-03T00:54:10.509Z,12.65
2023-01-03T00:56:41.297Z,12.72
2023-01-03T00:59:09.106Z,12.90
2023-01-03T01:01:46.298Z,12.29
2023-01-03T01:04:26.294Z,12.68
2023-01-03T01:06:58.088Z,12.42
2023-01-03T01:09:35.267Z,13.09
2023-01-03T01:12:02.887Z,13.27
2023-01-03T01:14:33.286Z,13.48
2023-01-03T01:17:07.471Z,13.34
2023-01-03T01:19:41.243Z,12.58
2023-01-03T01:22:09.449Z,12.87
2023-01-03T01:24:37.252Z,12.61
2023-01-03T01:27:04.397Z,12.42
2023-01-03T01:29:31.344Z,12.88
2023-01-03T01:31:58.326Z,12.94
2023-01-03T01:34:25.270Z,12.40
2023-01-03T01:36:52.848Z,12.59
2023-01-03T01:39:24.110Z,12.54
2023-01-03T01:42:19.318Z,12.77
2023-01-03T01:45:13.264Z,13.14
2023-01-03T01:47:59.861Z,13.21
2023-01-03T01:50:39.703Z,13.24
2023-01-03T01:53:22.747Z,13.20
2023-01-03T01:56:06.672Z,12.98
2023-01-03T01:58:38.731Z,13.18
2023-01-03T02:01:10.064Z,13.30
2023-01-03T02:03:37.835Z,13.36
2023-01-03T02:06:08.259Z,13.40
2023-01-03T02:08:35.674Z,13.41
2023-01-03T02:11:45.819Z,13.48
2023-01-03T02:15:10.339Z,13.29
2023-01-03T02:18:19.145Z,13.44
2023-01-03T02:21:20.036Z,13.35
2023-01-03T02:24:24.322Z,13.31
2023-01-03T02:27:12.187Z,13.33
2023-01-03T02:30:33.353Z,13.34
2023-01-03T02:33:28.077Z,13.21
2023-01-03T02:36:23.619Z,13.18
2023-01-03T02:39:05.505Z,13.15
2023-01-03T02:41:39.356Z,13.10
2023-01-03T02:44:20.823Z,13.30
2023-01-03T02:46:53.805Z,13.23
2023-01-03T02:49:37.172Z,13.16
2023-01-03T02:52:15.188Z,13.21
2023-01-03T02:55:05.349Z,13.16
2023-01-03T02:58:03.666Z,13.05
2023-01-03T03:00:34.140Z,12.92
2023-01-03T03:03:10.600Z,12.92
2023-01-03T03:05:49.206Z,12.84
2023-01-03T03:08:16.610Z,12.68
2023-01-03T03:11:04.595Z,12.72
2023-01-03T03:13:44.726Z,12.78
2023-01-03T03:16:56.759Z,12.92
2023-01-03T03:19:53.776Z,12.89
2023-01-03T03:22:54.960Z,12.83
2023-01-03T03:25:47.189Z,12.87
2023-01-03T03:28:37.158Z,12.76
2023-01-03T03:31:19.191Z,12.75
2023-01-03T03:34:11.662Z,12.68
2023-01-03T03:36:56.138Z,12.67
2023-01-03T03:39:44.019Z,12.52
2023-01-03T03:42:47.298Z,12.53
2023-01-03T03:45:50.249Z,12.48
2023-01-03T03:48:31.326Z,12.40
2023-01-03T03:51:08.448Z,12.40
2023-01-03T03:53:39.450Z,12.31
2023-01-03T03:56:21.957Z,12.38
2023-01-03T03:58:57.027Z,12.34
2023-01-03T04:01:26.828Z,12.37
2023-01-03T04:03:57.650Z,12.49
2023-01-03T04:06:47.801Z,12.59
2023-01-03T04:09:15.527Z,12.46
2023-01-03T04:11:42.855Z,12.46
2023-01-03T04:14:09.877Z,12.42
2023-01-03T04:16:37.783Z,12.49
2023-01-03T04:19:05.177Z,12.37
2023-01-03T04:21:32.644Z,12.21
2023-01-03T04:24:00.141Z,12.28
2023-01-03T04:26:28.721Z,12.20
2023-01-03T04:28:55.743Z,12.23
2023-01-03T04:31:22.733Z,12.22
2023-01-03T04:33:50.546Z,12.10
2023-01-03T04:36:18.460Z,12.21
2023-01-03T04:38:45.897Z,12.23
2023-01-03T04:41:12.916Z,12.10
2023-01-03T04:43:58.883Z,12.18
2023-01-03T04:46:26.015Z,11.98
2023-01-03T04:48:53.048Z,12.12
2023-01-03T04:51:20.862Z,12.15
2023-01-03T04:53:47.832Z,12.13
2023-01-03T04:56:15.244Z,12.15
2023-01-03T04:58:42.433Z,12.14
2023-01-03T05:01:10.045Z,12.14
2023-01-03T05:03:38.116Z,12.13
2023-01-03T05:06:08.490Z,12.16
2023-01-03T05:08:36.379Z,12.08
2023-01-03T05:11:04.312Z,11.98
2023-01-03T05:13:32.745Z,11.98
2023-01-03T05:16:09.347Z,12.08
2023-01-03T05:18:37.070Z,12.03
2023-01-03T05:21:42.173Z,12.11
2023-01-03T05:24:30.102Z,12.08
2023-01-03T05:26:59.791Z,12.10
2023-01-03T05:29:28.134Z,12.04
2023-01-03T05:31:55.569Z,11.99
2023-01-03T05:34:23.077Z,11.93
2023-01-03T05:36:50.459Z,11.86
2023-01-03T05:39:17.391Z,11.91
2023-01-03T05:42:02.504Z,11.86
2023-01-03T05:44:33.557Z,11.89
2023-01-03T05:47:03.078Z,11.85
2023-01-03T05:49:30.513Z,11.83
2023-01-03T05:51:57.699Z,11.88
2023-01-03T05:54:25.046Z,11.91
2023-01-03T05:56:52.455Z,11.96
2023-01-03T05:59:20.984Z,11.92
2023-01-03T06:01:48.716Z,11.85
2023-01-03T06:04:16.259Z,11.81
2023-01-03T06:06:43.716Z,11.78
2023-01-03T06:09:11.124Z,11.75
2023-01-03T06:11:40.976Z,11.78
2023-01-03T06:14:08.496Z,11.70
2023-01-03T06:17:05.013Z,11.71
2023-01-03T06:19:32.471Z,11.69
2023-01-03T06:21:59.440Z,11.69
2023-01-03T06:24:26.827Z,11.77
2023-01-03T06:26:54.208Z,11.70
2023-01-03T06:29:21.194Z,11.65
2023-01-03T06:31:48.163Z,11.57
2023-01-03T06:34:15.368Z,11.56
2023-01-03T06:36:42.287Z,11.59
2023-01-03T06:39:09.706Z,11.60
2023-01-03T06:41:36.897Z,11.57
2023-01-03T06:44:04.399Z,11.51
2023-01-03T06:46:50.411Z,11.48
2023-01-03T06:49:56.811Z,11.59
2023-01-03T06:52:42.546Z,11.50
2023-01-03T06:55:09.983Z,11.49
2023-01-03T06:57:36.915Z,11.46
2023-01-03T07:00:05.222Z,11.41
2023-01-03T07:02:32.433Z,11.36
2023-01-03T07:04:59.482Z,11.27
2023-01-03T07:07:26.850Z,11.30
2023-01-03T07:09:53.816Z,11.38
2023-01-03T07:12:41.059Z,11.36
2023-01-03T07:15:08.875Z,11.32
2023-01-03T07:17:36.238Z,11.33
2023-01-03T07:20:03.766Z,11.36
2023-01-03T07:22:31.154Z,11.36
2023-01-03T07:24:58.138Z,11.30
2023-01-03T07:27:25.083Z,11.31
2023-01-03T07:29:52.075Z,11.22
2023-01-03T07:32:19.514Z,11.28
2023-01-03T07:34:46.879Z,11.41
2023-01-03T07:37:14.304Z,11.29
2023-01-03T07:39:41.646Z,11.25
2023-01-03T07:42:27.593Z,11.26
2023-01-03T07:44:55.692Z,11.21
2023-01-03T07:47:23.108Z,11.25
2023-01-03T07:49:50.472Z,11.23
2023-01-03T07:52:17.848Z,11.21
2023-01-03T07:54:45.345Z,11.20
2023-01-03T07:57:12.742Z,11.30
2023-01-03T07:59:39.687Z,11.35
2023-01-03T08:02:06.770Z,11.41
2023-01-03T08:04:34.349Z,11.47
2023-01-03T08:07:02.146Z,11.47
2023-01-03T08:09:48.635Z,11.38
2023-01-03T08:12:34.527Z,11.33
2023-01-03T08:15:01.472Z,11.37
2023-01-03T08:17:28.884Z,11.39
2023-01-03T08:19:56.247Z,11.34
2023-01-03T08:22:23.591Z,11.37
2023-01-03T08:24:50.956Z,11.41
2023-01-03T08:27:18.321Z,11.50
2023-01-03T08:29:47.269Z,11.56
2023-01-03T08:32:14.780Z,11.43
2023-01-03T08:34:44.315Z,11.45
2023-01-03T08:37:13.120Z,11.48
2023-01-03T08:39:49.701Z,11.52
2023-01-03T08:42:20.675Z,11.08
2023-01-03T08:44:49.878Z,11.04
2023-01-03T08:47:17.683Z,10.94
2023-01-03T08:49:45.229Z,11.15
2023-01-03T08:52:12.712Z,11.13
2023-01-03T08:54:40.113Z,11.13
2023-01-03T08:57:07.487Z,11.13
2023-01-03T08:59:34.842Z,11.16
2023-01-03T09:02:02.947Z,11.28
2023-01-03T09:04:30.521Z,11.41
2023-01-03T09:06:57.950Z,11.47
2023-01-03T09:09:25.300Z,11.34
2023-01-03T09:11:52.653Z,11.33
2023-01-03T09:14:19.675Z,11.37
2023-01-03T09:16:49.234Z,11.52
2023-01-03T09:19:17.197Z,11.49
2023-01-03T09:21:44.210Z,11.45
2023-01-03T09:24:11.655Z,11.52
2023-01-03T09:26:39.001Z,11.60
2023-01-03T09:29:06.463Z,11.31
2023-01-03T09:31:35.401Z,11.47
2023-01-03T09:34:05.178Z,11.54
2023-01-03T09:36:32.873Z,11.53
2023-01-03T09:39:00.349Z,11.47
2023-01-03T09:41:29.028Z,11.61
2023-01-03T09:44:08.235Z,11.69
2023-01-03T09:46:35.681Z,11.73
2023-01-03T09:49:04.438Z,11.74
2023-01-03T09:52:01.499Z,11.86
2023-01-03T09:54:56.063Z,11.86
2023-01-03T09:57:50.754Z,11.84
2023-01-03T10:00:49.473Z,11.97
2023-01-03T10:03:55.573Z,12.01
2023-01-03T10:07:06.234Z,11.95
2023-01-03T10:10:05.780Z,11.85
2023-01-03T10:12:55.018Z,11.89
2023-01-03T10:15:46.096Z,11.84
2023-01-03T10:19:04.377Z,11.87
2023-01-03T10:22:28.785Z,11.82
2023-01-03T10:25:21.458Z,11.77
2023-01-03T10:27:57.221Z,11.66
2023-01-03T10:31:07.990Z,11.87
2023-01-03T10:33:47.200Z,11.72
2023-01-03T10:36:17.770Z,11.74
2023-01-03T10:38:52.579Z,11.55
2023-01-03T10:41:44.882Z,11.50
2023-01-03T10:45:01.086Z,11.57
2023-01-03T10:47:28.046Z,11.58
2023-01-03T10:50:04.172Z,11.57
2023-01-03T10:52:38.504Z,11.53
2023-01-03T10:55:17.076Z,11.69
2023-01-03T10:57:48.547Z,11.98
2023-01-03T11:00:37.884Z,12.04
2023-01-03T11:03:24.208Z,12.09
2023-01-03T11:06:00.419Z,12.18
2023-01-03T11:08:48.560Z,12.27
2023-01-03T11:11:37.624Z,12.34
2023-01-03T11:14:24.720Z,12.32
2023-01-03T11:17:04.256Z,11.82
2023-01-03T11:19:33.877Z,11.83
2023-01-03T11:22:14.963Z,11.67
2023-01-03T11:25:16.015Z,12.22
2023-01-03T11:28:16.549Z,12.01
2023-01-03T11:30:57.387Z,11.95
2023-01-03T11:33:57.586Z,11.67
2023-01-03T11:36:49.769Z,11.41
2023-01-03T11:39:53.596Z,12.32
2023-01-03T11:42:59.888Z,12.31
2023-01-03T11:45:52.685Z,12.25
2023-01-03T11:49:15.670Z,12.02
2023-01-03T11:52:23.572Z,12.25
2023-01-03T11:55:29.435Z,12.27
2023-01-03T11:58:27.190Z,11.60
2023-01-03T12:01:20.274Z,11.68
2023-01-03T12:04:33.073Z,11.61
2023-01-03T12:07:47.121Z,12.10
2023-01-03T12:10:26.108Z,11.94
2023-01-03T12:13:28.890Z,12.12
2023-01-03T12:16:08.768Z,12.32
2023-01-03T12:18:41.975Z,12.37
2023-01-03T12:21:19.671Z,11.97
2023-01-03T12:24:05.522Z,12.33
2023-01-03T12:26:34.154Z,12.23
2023-01-03T12:29:46.494Z,11.95
2023-01-03T12:33:20.040Z,11.71
2023-01-03T12:36:14.720Z,11.66
2023-01-03T12:39:03.336Z,12.24
2023-01-03T12:42:14.818Z,17.46
2023-01-03T12:44:46.520Z,18.32
2023-01-03T12:47:53.852Z,20.49
2023-01-03T12:50:50.764Z,22.12
2023-01-03T12:53:27.632Z,22.08
2023-01-03T12:56:45.899Z,21.85
2023-01-03T12:59:43.880Z,20.27
2023-01-03T13:03:05.679Z,22.16
2023-01-03T13:05:50.797Z,19.14
2023-01-03T13:08:34.075Z,17.61
2023-01-03T13:11:26.652Z,20.10
2023-01-03T13:13:59.429Z,20.21
2023-01-03T13:16:37.040Z,21.25
2023-01-03T13:19:22.459Z,21.68
2023-01-03T13:22:03.142Z,19.36
2023-01-03T13:24:53.512Z,17.81
2023-01-03T13:27:34.129Z,19.80
2023-01-03T13:30:01.133Z,22.16
2023-01-03T13:32:36.327Z,20.76
2023-01-03T13:35:04.982Z,23.06
2023-01-03T13:37:48.559Z,26.06
2023-01-03T13:41:07.974Z,26.29
2023-01-03T13:43:39.674Z,24.44
2023-01-03T13:46:31.218Z,23.14
2023-01-03T13:49:02.784Z,23.88
2023-01-03T13:51:41.208Z,23.01
2023-01-03T13:54:11.224Z,22.41
2023-01-03T13:56:44.233Z,22.01
2023-01-03T13:59:34.791Z,21.51
2023-01-03T14:02:08.845Z,20.85
2023-01-03T14:05:16.114Z,18.91
2023-01-03T14:08:45.072Z,17.56
2023-01-03T14:11:48.885Z,15.41
2023-01-03T14:14:22.419Z,15.54
2023-01-03T14:16:53.535Z,15.79
2023-01-03T14:19:35.891Z,15.12
2023-01-03T14:22:34.827Z,14.51
2023-01-03T14:25:01.960Z,14.36
2023-01-03T14:27:37.390Z,14.22
2023-01-03T14:30:05.437Z,14.24
2023-01-03T14:32:37.305Z,13.79
2023-01-03T14:35:05.223Z,13.83
2023-01-03T14:37:34.910Z,13.78
2023-01-03T14:40:06.985Z,13.13
2023-01-03T14:42:33.977Z,13.72
2023-01-03T14:45:06.221Z,13.99
2023-01-03T14:47:36.141Z,13.95
2023-01-03T14:50:06.553Z,13.16
2023-01-03T14:52:38.568Z,12.65
2023-01-03T14:55:12.811Z,13.27
2023-01-03T14:57:40.322Z,12.96
2023-01-03T15:00:16.004Z,13.17
2023-01-03T15:02:43.771Z,13.23
2023-01-03T15:05:41.016Z,13.31
2023-01-03T15:08:29.564Z,13.03
2023-01-03T15:11:08.728Z,12.98
2023-01-03T15:13:43.440Z,12.81
2023-01-03T15:16:39.066Z,12.87
2023-01-03T15:19:24.556Z,12.79
2023-01-03T15:22:17.295Z,12.85
2023-01-03T15:24:47.512Z,12.61
2023-01-03T15:27:39.303Z,12.67
2023-01-03T15:30:15.782Z,12.57
2023-01-03T15:33:35.658Z,12.51
2023-01-03T15:36:18.505Z,12.55
2023-01-03T15:38:48.912Z,12.43
2023-01-03T15:41:44.516Z,12.32
2023-01-03T15:44:13.350Z,12.17
2023-01-03T15:46:48.849Z,12.21
2023-01-03T15:49:20.386Z,12.25
2023-01-03T15:51:48.330Z,12.23
2023-01-03T15:54:18.541Z,12.32
2023-01-03T15:57:10.469Z,12.46
2023-01-03T15:59:43.152Z,12.35
2023-01-03T16:02:16.952Z,12.38
2023-01-03T16:04:46.243Z,12.32
2023-01-03T16:07:14.267Z,12.32
2023-01-03T16:09:41.372Z,12.10
2023-01-03T16:12:33.979Z,12.24
2023-01-03T16:15:01.542Z,12.05
2023-01-03T16:17:29.730Z,12.11
2023-01-03T16:19:58.832Z,12.18
2023-01-03T16:22:35.471Z,12.15
2023-01-03T16:25:04.917Z,12.14
2023-01-03T16:27:32.030Z,12.05
2023-01-03T16:29:59.236Z,12.14
2023-01-03T16:32:29.755Z,12.02
2023-01-03T16:35:02.233Z,12.08
2023-01-03T16:37:29.454Z,12.14
2023-01-03T16:39:58.358Z,12.19
2023-01-03T16:42:28.743Z,12.00
2023-01-03T16:44:56.357Z,11.92
2023-01-03T16:47:30.225Z,11.88
2023-01-03T16:50:06.120Z,11.86
2023-01-03T16:52:37.263Z,11.70
2023-01-03T16:55:32.226Z,11.79
2023-01-03T16:57:59.874Z,11.76
2023-01-03T17:00:30.646Z,11.74
2023-01-03T17:03:00.200Z,11.76
2023-01-03T17:05:37.215Z,11.84
2023-01-03T17:08:12.353Z,11.63
2023-01-03T17:10:41.884Z,11.61
2023-01-03T17:13:30.193Z,11.75
2023-01-03T17:15:58.199Z,11.65
2023-01-03T17:18:32.726Z,11.91
2023-01-03T17:21:25.945Z,11.83
2023-01-03T17:23:58.429Z,11.65
2023-01-03T17:26:26.739Z,11.58
2023-01-03T17:28:55.153Z,11.54
2023-01-03T17:31:25.362Z,11.55
2023-01-03T17:33:53.486Z,11.56
2023-01-03T17:36:27.806Z,11.68
2023-01-03T17:38:59.882Z,11.64
2023-01-03T17:41:27.766Z,11.61
2023-01-03T17:43:55.052Z,11.51
2023-01-03T17:46:46.536Z,11.56
2023-01-03T17:49:26.578Z,11.62
2023-01-03T17:51:59.084Z,11.63
2023-01-03T17:54:37.164Z,11.65
2023-01-03T17:57:44.449Z,11.49
2023-01-03T18:00:27.840Z,11.38
2023-01-03T18:03:14.403Z,11.30
2023-01-03T18:05:59.136Z,11.26
2023-01-03T18:08:48.829Z,11.24
2023-01-03T18:11:51.101Z,11.26
2023-01-03T18:14:35.030Z,11.32
2023-01-03T18:17:26.573Z,11.19
2023-01-03T18:20:05.758Z,11.10
2023-01-03T18:22:40.197Z,11.07
2023-01-03T18:28:28.265Z,11.13
2023-01-03T18:31:07.863Z,11.26
2023-01-03T18:33:58.471Z,11.03
2023-01-03T18:37:09.279Z,11.11
2023-01-03T18:39:45.401Z,11.07
2023-01-03T18:42:47.679Z,10.99
2023-01-03T18:45:49.170Z,10.98
2023-01-03T18:48:23.887Z,10.83
2023-01-03T18:51:08.423Z,10.83
2023-01-03T18:53:44.461Z,10.81
2023-01-03T19:01:05.216Z,10.84
2023-01-03T19:03:39.272Z,10.89
2023-01-03T19:06:34.142Z,10.88
2023-01-03T19:09:12.842Z,10.85
2023-01-03T19:11:45.994Z,10.76
2023-01-03T19:14:14.844Z,10.72
2023-01-03T19:17:16.284Z,10.64
2023-01-03T19:19:52.628Z,10.58
2023-01-03T19:22:40.274Z,10.69
2023-01-03T19:25:37.840Z,10.69
2023-01-03T19:28:24.947Z,10.65
2023-01-03T19:31:00.275Z,10.58
2023-01-03T19:33:35.921Z,10.61
2023-01-03T19:36:26.851Z,10.68
2023-01-03T19:39:00.857Z,10.66
2023-01-03T19:42:07.636Z,10.67
2023-01-03T19:45:38.436Z,10.62
2023-01-03T19:48:26.970Z,10.57
2023-01-03T19:51:16.298Z,10.60
2023-01-03T19:53:54.970Z,10.54
2023-01-03T19:56:31.793Z,10.49
2023-01-03T19:59:10.277Z,10.43
2023-01-03T20:02:24.639Z,10.51
2023-01-03T20:05:00.920Z,10.39
2023-01-03T20:07:51.500Z,10.48
2023-01-03T20:10:45.502Z,10.41
2023-01-03T20:13:24.852Z,10.26
2023-01-03T20:16:03.162Z,10.24
2023-01-03T20:18:43.761Z,10.33
2023-01-03T20:21:35.740Z,10.38
2023-01-03T20:24:10.359Z,10.32
2023-01-03T20:26:43.420Z,10.23
2023-01-03T20:29:23.535Z,10.19
2023-01-03T20:31:57.771Z,10.24
2023-01-03T20:34:33.564Z,10.34
2023-01-03T20:37:20.645Z,10.25
2023-01-03T20:39:59.404Z,10.17
2023-01-03T20:46:16.364Z,10.22
2023-01-03T20:49:50.047Z,10.15
2023-01-03T20:52:40.938Z,10.06
2023-01-03T20:56:28.427Z,10.15
2023-01-03T20:59:04.849Z,10.08
2023-01-03T21:01:54.077Z,10.01
2023-01-03T21:05:11.717Z,10.07
2023-01-03T21:08:22.554Z,10.07
2023-01-03T21:11:24.599Z,10.12
2023-01-03T21:14:11.076Z,10.08
2023-01-03T21:16:55.237Z,10.03
2023-01-03T21:19:35.267Z,10.01
2023-01-03T21:26:56.018Z,9.98
2023-01-03T21:29:53.842Z,10.00
2023-01-03T21:32:29.640Z,9.91
2023-01-03T21:35:47.531Z,9.89
2023-01-03T21:38:19.224Z,9.82
2023-01-03T21:40:55.684Z,9.93
2023-01-03T21:43:37.339Z,9.81
2023-01-03T21:46:12.808Z,9.82
2023-01-03T21:48:41.124Z,9.68
2023-01-03T21:51:12.137Z,9.61
2023-01-03T21:53:40.209Z,9.64
2023-01-03T21:56:21.173Z,9.65
2023-01-03T21:59:10.760Z,9.71
2023-01-03T22:02:33.364Z,9.69
2023-01-03T22:04:59.114Z,9.70
2023-01-03T22:07:30.272Z,9.83
2023-01-03T22:10:23.383Z,9.65
2023-01-03T22:16:20.275Z,9.73
2023-01-03T22:19:12.350Z,9.69
2023-01-03T22:21:43.042Z,9.66
2023-01-03T22:24:38.381Z,9.59
2023-01-03T22:27:19.726Z,9.62
2023-01-03T22:29:54.588Z,9.64
2023-01-03T22:33:00.544Z,9.67
2023-01-03T22:36:01.026Z,9.61
2023-01-03T22:38:29.184Z,9.46
2023-01-03T22:41:45.012Z,9.55
2023-01-03T22:44:28.652Z,9.59
2023-01-03T22:47:10.866Z,9.57
2023-01-03T22:49:53.106Z,9.51
2023-01-03T22:52:23.403Z,9.48
2023-01-03T22:54:53.646Z,9.33
2023-01-03T22:57:23.757Z,9.34
2023-01-03T22:59:51.464Z,9.29
2023-01-03T23:05:45.354Z,9.80
2023-01-03T23:08:16.114Z,9.41
2023-01-03T23:11:10.584Z,9.44
2023-01-03T23:13:49.782Z,9.46
2023-01-03T23:16:28.899Z,9.36
2023-01-03T23:18:56.919Z,9.31
2023-01-03T23:21:26.864Z,9.26
2023-01-03T23:23:54.327Z,9.22
2023-01-03T23:26:21.709Z,9.20
2023-01-03T23:28:49.086Z,9.12
2023-01-03T23:31:16.523Z,9.05
2023-01-03T23:33:44.043Z,9.13
2023-01-03T23:36:13.742Z,9.16
2023-01-03T23:38:41.089Z,9.09
2023-01-03T23:41:12.162Z,9.13
2023-01-03T23:43:39.471Z,9.10
2023-01-03T23:46:07.181Z,9.12
2023-01-03T23:48:34.692Z,9.12
2023-01-03T23:51:03.744Z,8.69
2023-01-03T23:53:31.374Z,7.81
2023-01-03T23:55:59.187Z,8.01
2023-01-03T23:58:26.157Z,7.83
